sensor_id;sensor_type;location;lat;lon;timestamp;temperature;humidity
1021;DHT22;499;42.648;23.270;2023-03-01T00:02:15;5.50;99.90
1021;DHT22;499;42.648;23.270;2023-03-01T00:04:42;5.60;99.90
1021;DHT22;499;42.648;23.270;2023-03-01T00:07:09;5.50;99.90
1021;DHT22;499;42.648;23.270;2023-03-01T00:09:38;5.50;99.90
1021;DHT22;499;42.648;23.270;2023-03-01T00:12:06;5.50;99.90
1021;DHT22;499;42.648;23.270;2023-03-01T00:14:33;5.50;99.90
1021;DHT22;499;42.648;23.270;2023-03-01T00:17:00;5.50;99.90
1021;DHT22;499;42.648;23.270;2023-03-01T00:19:27;5.40;99.90
1021;DHT22;499;42.648;23.270;2023-03-01T00:21:54;5.40;99.90
1021;DHT22;499;42.648;23.270;2023-03-01T00:24:21;5.20;99.90
1021;DHT22;499;42.648;23.270;2023-03-01T00:26:53;5.20;99.90
1021;DHT22;499;42.648;23.270;2023-03-01T00:29:21;5.20;99.90
1021;DHT22;499;42.648;23.270;2023-03-01T00:31:48;5.10;99.90
1021;DHT22;499;42.648;23.270;2023-03-01T00:34:15;5.00;99.90
1021;DHT22;499;42.648;23.270;2023-03-01T00:36:41;5.10;99.90
1021;DHT22;499;42.648;23.270;2023-03-01T00:39:12;5.10;99.90
1021;DHT22;499;42.648;23.270;2023-03-01T00:41:39;5.00;99.90
1021;DHT22;499;42.648;23.270;2023-03-01T00:44:08;5.00;99.90
1021;DHT22;499;42.648;23.270;2023-03-01T00:46:35;5.00;99.90
1021;DHT22;499;42.648;23.270;2023-03-01T00:49:02;4.90;99.90
1021;DHT22;499;42.648;23.270;2023-03-01T00:51:30;4.80;99.90
1021;DHT22;499;42.648;23.270;2023-03-01T00:53:58;4.80;99.90
1021;DHT22;499;42.648;23.270;2023-03-01T00:56:26;4.80;99.90
1021;DHT22;499;42.648;23.270;2023-03-01T00:58:53;4.80;99.90
1021;DHT22;499;42.648;23.270;2023-03-01T01:01:23;4.80;99.90
1021;DHT22;499;42.648;23.270;2023-03-01T01:03:54;4.70;99.90
1021;DHT22;499;42.648;23.270;2023-03-01T01:06:23;4.70;99.90
1021;DHT22;499;42.648;23.270;2023-03-01T01:08:51;4.80;99.90
1021;DHT22;499;42.648;23.270;2023-03-01T01:11:19;4.80;99.90
1021;DHT22;499;42.648;23.270;2023-03-01T01:13:47;4.80;99.90
1021;DHT22;499;42.648;23.270;2023-03-01T01:16:16;4.90;99.90
1021;DHT22;499;42.648;23.270;2023-03-01T01:18:44;5.00;99.90
1021;DHT22;499;42.648;23.270;2023-03-01T01:21:13;5.00;99.90
1021;DHT22;499;42.648;23.270;2023-03-01T01:23:41;5.10;99.90
1021;DHT22;499;42.648;23.270;2023-03-01T01:26:11;5.10;99.90
1021;DHT22;499;42.648;23.270;2023-03-01T01:28:39;5.10;99.90
1021;DHT22;499;42.648;23.270;2023-03-01T01:31:06;5.10;99.90
1021;DHT22;499;42.648;23.270;2023-03-01T01:33:34;5.20;99.90
1021;DHT22;499;42.648;23.270;2023-03-01T01:36:03;5.20;99.90
1021;DHT22;499;42.648;23.270;2023-03-01T01:38:30;5.30;99.90
1021;DHT22;499;42.648;23.270;2023-03-01T01:40:57;5.40;99.90
1021;DHT22;499;42.648;23.270;2023-03-01T01:43:28;5.30;99.90
1021;DHT22;499;42.648;23.270;2023-03-01T01:45:57;5.50;99.90
1021;DHT22;499;42.648;23.270;2023-03-01T01:48:34;5.40;97.10
1021;DHT22;499;42.648;23.270;2023-03-01T01:51:11;5.50;96.40
1021;DHT22;499;42.648;23.270;2023-03-01T01:53:40;5.50;95.20
1021;DHT22;499;42.648;23.270;2023-03-01T01:56:10;5.50;95.20
1021;DHT22;499;42.648;23.270;2023-03-01T01:58:38;5.40;93.20
1021;DHT22;499;42.648;23.270;2023-03-01T02:01:07;5.40;93.20
1021;DHT22;499;42.648;23.270;2023-03-01T02:03:37;5.40;93.20
1021;DHT22;499;42.648;23.270;2023-03-01T02:06:17;5.30;93.20
1021;DHT22;499;42.648;23.270;2023-03-01T02:08:46;5.40;93.20
1021;DHT22;499;42.648;23.270;2023-03-01T02:11:14;5.30;92.90
1021;DHT22;499;42.648;23.270;2023-03-01T02:13:41;5.30;93.30
1021;DHT22;499;42.648;23.270;2023-03-01T02:16:10;5.20;93.20
1021;DHT22;499;42.648;23.270;2023-03-01T02:18:38;5.10;92.80
1021;DHT22;499;42.648;23.270;2023-03-01T02:21:23;5.10;93.20
1021;DHT22;499;42.648;23.270;2023-03-01T02:23:53;5.00;94.30
1021;DHT22;499;42.648;23.270;2023-03-01T02:26:27;5.00;94.40
1021;DHT22;499;42.648;23.270;2023-03-01T02:28:58;5.00;93.70
1021;DHT22;499;42.648;23.270;2023-03-01T02:31:25;4.90;94.10
1021;DHT22;499;42.648;23.270;2023-03-01T02:34:13;4.80;95.40
1021;DHT22;499;42.648;23.270;2023-03-01T02:36:42;4.90;96.50
1021;DHT22;499;42.648;23.270;2023-03-01T02:39:15;4.90;94.80
1021;DHT22;499;42.648;23.270;2023-03-01T02:41:46;4.70;95.60
1021;DHT22;499;42.648;23.270;2023-03-01T02:44:16;4.70;96.90
1021;DHT22;499;42.648;23.270;2023-03-01T02:46:45;4.60;98.00
1021;DHT22;499;42.648;23.270;2023-03-01T02:49:19;4.60;98.80
1021;DHT22;499;42.648;23.270;2023-03-01T02:51:52;4.60;99.50
1021;DHT22;499;42.648;23.270;2023-03-01T02:54:26;4.50;99.90
1021;DHT22;499;42.648;23.270;2023-03-01T02:56:55;4.60;99.90
1021;DHT22;499;42.648;23.270;2023-03-01T02:59:27;4.50;99.90
1021;DHT22;499;42.648;23.270;2023-03-01T03:01:55;4.50;99.90
1021;DHT22;499;42.648;23.270;2023-03-01T03:04:22;4.50;99.90
1021;DHT22;499;42.648;23.270;2023-03-01T03:06:50;4.40;99.90
1021;DHT22;499;42.648;23.270;2023-03-01T03:09:18;4.40;99.90
1021;DHT22;499;42.648;23.270;2023-03-01T03:11:45;4.30;99.90
1021;DHT22;499;42.648;23.270;2023-03-01T03:14:15;4.30;99.90
1021;DHT22;499;42.648;23.270;2023-03-01T03:16:45;4.30;99.90
1021;DHT22;499;42.648;23.270;2023-03-01T03:19:12;4.20;99.90
1021;DHT22;499;42.648;23.270;2023-03-01T03:21:39;4.30;99.90
1021;DHT22;499;42.648;23.270;2023-03-01T03:24:06;4.30;99.90
1021;DHT22;499;42.648;23.270;2023-03-01T03:26:33;4.30;99.90
1021;DHT22;499;42.648;23.270;2023-03-01T03:29:01;4.30;99.90
1021;DHT22;499;42.648;23.270;2023-03-01T03:31:31;4.30;99.90
1021;DHT22;499;42.648;23.270;2023-03-01T03:34:03;4.30;99.90
1021;DHT22;499;42.648;23.270;2023-03-01T03:36:32;4.30;99.90
1021;DHT22;499;42.648;23.270;2023-03-01T03:39:01;4.20;99.90
1021;DHT22;499;42.648;23.270;2023-03-01T03:41:30;4.30;99.90
1021;DHT22;499;42.648;23.270;2023-03-01T03:43:57;4.30;99.90
1021;DHT22;499;42.648;23.270;2023-03-01T03:46:27;4.30;99.90
1021;DHT22;499;42.648;23.270;2023-03-01T03:48:55;4.20;99.90
1021;DHT22;499;42.648;23.270;2023-03-01T03:51:28;4.20;99.90
1021;DHT22;499;42.648;23.270;2023-03-01T03:53:55;4.30;99.90
1021;DHT22;499;42.648;23.270;2023-03-01T03:56:23;4.20;99.90
1021;DHT22;499;42.648;23.270;2023-03-01T03:58:51;4.20;99.90
1021;DHT22;499;42.648;23.270;2023-03-01T04:01:20;4.20;99.90
1021;DHT22;499;42.648;23.270;2023-03-01T04:03:47;4.30;99.90
1021;DHT22;499;42.648;23.270;2023-03-01T04:06:20;4.20;99.90
1021;DHT22;499;42.648;23.270;2023-03-01T04:08:48;4.20;99.90
1021;DHT22;499;42.648;23.270;2023-03-01T04:11:25;4.20;99.90
1021;DHT22;499;42.648;23.270;2023-03-01T04:13:53;4.20;99.90
1021;DHT22;499;42.648;23.270;2023-03-01T04:16:21;4.30;99.90
1021;DHT22;499;42.648;23.270;2023-03-01T04:18:48;4.30;99.90
1021;DHT22;499;42.648;23.270;2023-03-01T04:21:15;4.20;99.90
1021;DHT22;499;42.648;23.270;2023-03-01T04:23:42;4.20;99.90
1021;DHT22;499;42.648;23.270;2023-03-01T04:26:10;4.30;99.90
1021;DHT22;499;42.648;23.270;2023-03-01T04:28:38;4.30;99.90
1021;DHT22;499;42.648;23.270;2023-03-01T04:31:10;4.30;99.90
1021;DHT22;499;42.648;23.270;2023-03-01T04:33:40;4.30;99.90
1021;DHT22;499;42.648;23.270;2023-03-01T04:36:09;4.30;99.90
1021;DHT22;499;42.648;23.270;2023-03-01T04:38:36;4.30;99.90
1021;DHT22;499;42.648;23.270;2023-03-01T04:41:04;4.30;99.90
1021;DHT22;499;42.648;23.270;2023-03-01T04:43:33;4.20;99.90
1021;DHT22;499;42.648;23.270;2023-03-01T04:46:01;4.10;99.90
1021;DHT22;499;42.648;23.270;2023-03-01T04:48:29;4.20;99.90
1021;DHT22;499;42.648;23.270;2023-03-01T04:50:56;4.20;99.90
1021;DHT22;499;42.648;23.270;2023-03-01T04:53:23;4.20;99.90
1021;DHT22;499;42.648;23.270;2023-03-01T04:55:50;4.20;99.90
1021;DHT22;499;42.648;23.270;2023-03-01T04:58:17;4.20;99.90
1021;DHT22;499;42.648;23.270;2023-03-01T05:00:46;4.20;99.90
1021;DHT22;499;42.648;23.270;2023-03-01T05:03:12;4.20;99.90
1021;DHT22;499;42.648;23.270;2023-03-01T05:05:45;4.20;99.90
1021;DHT22;499;42.648;23.270;2023-03-01T05:08:13;4.20;99.90
1021;DHT22;499;42.648;23.270;2023-03-01T05:10:44;4.10;99.90
1021;DHT22;499;42.648;23.270;2023-03-01T05:13:13;4.20;99.90
1021;DHT22;499;42.648;23.270;2023-03-01T05:15:48;4.20;99.90
1021;DHT22;499;42.648;23.270;2023-03-01T05:18:15;4.20;99.90
1021;DHT22;499;42.648;23.270;2023-03-01T05:20:42;4.20;99.90
1021;DHT22;499;42.648;23.270;2023-03-01T05:23:10;4.20;99.90
1021;DHT22;499;42.648;23.270;2023-03-01T05:25:37;4.20;99.90
1021;DHT22;499;42.648;23.270;2023-03-01T05:28:07;4.30;99.90
1021;DHT22;499;42.648;23.270;2023-03-01T05:30:37;4.30;99.90
1021;DHT22;499;42.648;23.270;2023-03-01T05:33:07;4.30;99.90
1021;DHT22;499;42.648;23.270;2023-03-01T05:35:39;4.30;99.90
1021;DHT22;499;42.648;23.270;2023-03-01T05:38:07;4.40;99.90
1021;DHT22;499;42.648;23.270;2023-03-01T05:40:35;4.50;99.90
1021;DHT22;499;42.648;23.270;2023-03-01T05:43:02;4.40;99.90
1021;DHT22;499;42.648;23.270;2023-03-01T05:45:31;4.50;99.90
1021;DHT22;499;42.648;23.270;2023-03-01T05:47:59;4.50;99.90
1021;DHT22;499;42.648;23.270;2023-03-01T05:50:28;4.50;99.90
1021;DHT22;499;42.648;23.270;2023-03-01T05:53:00;4.50;99.90
1021;DHT22;499;42.648;23.270;2023-03-01T05:55:29;4.50;99.90
1021;DHT22;499;42.648;23.270;2023-03-01T05:57:58;4.60;99.90
1021;DHT22;499;42.648;23.270;2023-03-01T06:00:26;4.60;98.70
1021;DHT22;499;42.648;23.270;2023-03-01T06:02:53;4.70;98.10
1021;DHT22;499;42.648;23.270;2023-03-01T06:05:21;4.70;97.70
1021;DHT22;499;42.648;23.270;2023-03-01T06:07:50;4.70;96.90
1021;DHT22;499;42.648;23.270;2023-03-01T06:10:19;4.80;94.80
1021;DHT22;499;42.648;23.270;2023-03-01T06:12:47;4.80;92.80
1021;DHT22;499;42.648;23.270;2023-03-01T06:15:15;4.80;91.60
1021;DHT22;499;42.648;23.270;2023-03-01T06:17:44;4.80;92.90
1021;DHT22;499;42.648;23.270;2023-03-01T06:20:13;4.90;92.10
1021;DHT22;499;42.648;23.270;2023-03-01T06:22:41;4.90;90.80
1021;DHT22;499;42.648;23.270;2023-03-01T06:25:11;4.90;90.40
1021;DHT22;499;42.648;23.270;2023-03-01T06:27:39;4.90;87.90
1021;DHT22;499;42.648;23.270;2023-03-01T06:30:10;4.80;90.00
1021;DHT22;499;42.648;23.270;2023-03-01T06:32:38;4.90;87.90
1021;DHT22;499;42.648;23.270;2023-03-01T06:35:08;4.90;89.60
1021;DHT22;499;42.648;23.270;2023-03-01T06:37:35;5.00;89.10
1021;DHT22;499;42.648;23.270;2023-03-01T06:40:03;4.90;89.40
1021;DHT22;499;42.648;23.270;2023-03-01T06:42:35;4.90;90.00
1021;DHT22;499;42.648;23.270;2023-03-01T06:45:03;4.90;90.50
1021;DHT22;499;42.648;23.270;2023-03-01T06:47:30;4.90;90.20
1021;DHT22;499;42.648;23.270;2023-03-01T06:49:58;4.90;89.10
1021;DHT22;499;42.648;23.270;2023-03-01T06:52:25;5.00;89.40
1021;DHT22;499;42.648;23.270;2023-03-01T06:54:52;5.00;88.70
1021;DHT22;499;42.648;23.270;2023-03-01T06:57:19;5.00;85.00
1021;DHT22;499;42.648;23.270;2023-03-01T06:59:48;5.10;80.40
1021;DHT22;499;42.648;23.270;2023-03-01T07:02:15;5.20;77.80
1021;DHT22;499;42.648;23.270;2023-03-01T07:04:42;5.20;75.20
1021;DHT22;499;42.648;23.270;2023-03-01T07:07:09;5.20;74.40
1021;DHT22;499;42.648;23.270;2023-03-01T07:09:36;5.20;73.30
1021;DHT22;499;42.648;23.270;2023-03-01T07:12:04;5.20;74.20
1021;DHT22;499;42.648;23.270;2023-03-01T07:14:31;5.50;73.90
1021;DHT22;499;42.648;23.270;2023-03-01T07:16:59;5.40;71.60
1021;DHT22;499;42.648;23.270;2023-03-01T07:19:26;5.60;71.80
1021;DHT22;499;42.648;23.270;2023-03-01T07:21:53;5.20;70.60
1021;DHT22;499;42.648;23.270;2023-03-01T07:24:21;5.80;70.60
1021;DHT22;499;42.648;23.270;2023-03-01T07:26:49;5.60;69.60
1021;DHT22;499;42.648;23.270;2023-03-01T07:29:17;5.60;71.90
1021;DHT22;499;42.648;23.270;2023-03-01T07:31:44;5.70;72.20
1021;DHT22;499;42.648;23.270;2023-03-01T07:34:13;5.70;73.20
1021;DHT22;499;42.648;23.270;2023-03-01T07:36:40;5.80;74.20
1021;DHT22;499;42.648;23.270;2023-03-01T07:39:09;5.90;69.30
1021;DHT22;499;42.648;23.270;2023-03-01T07:41:36;5.90;69.80
1021;DHT22;499;42.648;23.270;2023-03-01T07:44:03;5.90;70.30
1021;DHT22;499;42.648;23.270;2023-03-01T07:46:30;6.00;65.70
1021;DHT22;499;42.648;23.270;2023-03-01T07:48:57;6.00;64.30
1021;DHT22;499;42.648;23.270;2023-03-01T07:51:26;5.90;62.90
1021;DHT22;499;42.648;23.270;2023-03-01T07:53:53;6.10;60.90
1021;DHT22;499;42.648;23.270;2023-03-01T07:56:20;6.20;60.90
1021;DHT22;499;42.648;23.270;2023-03-01T07:58:48;6.40;60.30
1021;DHT22;499;42.648;23.270;2023-03-01T08:01:17;6.60;55.10
1021;DHT22;499;42.648;23.270;2023-03-01T08:03:44;6.40;53.90
1021;DHT22;499;42.648;23.270;2023-03-01T08:06:13;6.20;53.70
1021;DHT22;499;42.648;23.270;2023-03-01T08:08:41;6.30;54.00
1021;DHT22;499;42.648;23.270;2023-03-01T08:11:12;6.30;54.10
1021;DHT22;499;42.648;23.270;2023-03-01T08:13:39;6.40;53.50
1021;DHT22;499;42.648;23.270;2023-03-01T08:16:08;6.50;53.90
1021;DHT22;499;42.648;23.270;2023-03-01T08:18:36;6.60;51.50
1021;DHT22;499;42.648;23.270;2023-03-01T08:21:04;6.40;50.50
1021;DHT22;499;42.648;23.270;2023-03-01T08:23:31;6.50;52.20
1021;DHT22;499;42.648;23.270;2023-03-01T08:26:08;6.50;52.10
1021;DHT22;499;42.648;23.270;2023-03-01T08:28:35;6.40;51.70
1021;DHT22;499;42.648;23.270;2023-03-01T08:31:02;6.30;52.60
1021;DHT22;499;42.648;23.270;2023-03-01T08:33:29;6.40;51.20
1021;DHT22;499;42.648;23.270;2023-03-01T08:36:04;6.30;51.00
1021;DHT22;499;42.648;23.270;2023-03-01T08:38:32;6.20;52.10
1021;DHT22;499;42.648;23.270;2023-03-01T08:41:01;6.20;54.00
1021;DHT22;499;42.648;23.270;2023-03-01T08:43:30;6.30;51.10
1021;DHT22;499;42.648;23.270;2023-03-01T08:45:57;6.20;52.10
1021;DHT22;499;42.648;23.270;2023-03-01T08:48:24;6.10;52.00
1021;DHT22;499;42.648;23.270;2023-03-01T08:50:51;6.10;53.50
1021;DHT22;499;42.648;23.270;2023-03-01T08:53:18;6.10;54.10
1021;DHT22;499;42.648;23.270;2023-03-01T08:55:45;6.00;53.00
1021;DHT22;499;42.648;23.270;2023-03-01T08:58:13;6.20;54.20
1021;DHT22;499;42.648;23.270;2023-03-01T09:00:41;6.30;52.50
1021;DHT22;499;42.648;23.270;2023-03-01T09:03:08;6.30;50.30
1021;DHT22;499;42.648;23.270;2023-03-01T09:05:35;6.50;52.30
1021;DHT22;499;42.648;23.270;2023-03-01T09:08:02;6.60;51.60
1021;DHT22;499;42.648;23.270;2023-03-01T09:10:29;6.70;48.00
1021;DHT22;499;42.648;23.270;2023-03-01T09:12:57;6.60;47.90
1021;DHT22;499;42.648;23.270;2023-03-01T09:15:23;6.70;48.00
1021;DHT22;499;42.648;23.270;2023-03-01T09:17:52;6.80;48.10
1021;DHT22;499;42.648;23.270;2023-03-01T09:20:19;6.80;45.90
1021;DHT22;499;42.648;23.270;2023-03-01T09:22:46;6.70;47.50
1021;DHT22;499;42.648;23.270;2023-03-01T09:25:13;6.80;48.00
1021;DHT22;499;42.648;23.270;2023-03-01T09:27:40;6.80;47.30
1021;DHT22;499;42.648;23.270;2023-03-01T09:30:09;6.70;47.30
1021;DHT22;499;42.648;23.270;2023-03-01T09:32:36;6.80;47.70
1021;DHT22;499;42.648;23.270;2023-03-01T09:35:06;6.70;47.50
1021;DHT22;499;42.648;23.270;2023-03-01T09:37:34;6.80;48.00
1021;DHT22;499;42.648;23.270;2023-03-01T09:40:02;6.70;48.00
1021;DHT22;499;42.648;23.270;2023-03-01T09:42:32;6.70;48.00
1021;DHT22;499;42.648;23.270;2023-03-01T09:45:04;6.80;49.00
1021;DHT22;499;42.648;23.270;2023-03-01T09:47:34;6.80;47.60
1021;DHT22;499;42.648;23.270;2023-03-01T09:50:09;6.90;48.10
1021;DHT22;499;42.648;23.270;2023-03-01T09:52:41;7.00;48.90
1021;DHT22;499;42.648;23.270;2023-03-01T09:55:11;7.20;46.10
1021;DHT22;499;42.648;23.270;2023-03-01T09:57:46;7.20;45.60
1021;DHT22;499;42.648;23.270;2023-03-01T10:00:24;7.20;45.40
1021;DHT22;499;42.648;23.270;2023-03-01T10:02:58;7.30;44.60
1021;DHT22;499;42.648;23.270;2023-03-01T10:05:36;7.10;44.50
1021;DHT22;499;42.648;23.270;2023-03-01T10:08:20;7.00;44.00
1021;DHT22;499;42.648;23.270;2023-03-01T10:10:51;7.00;46.30
1021;DHT22;499;42.648;23.270;2023-03-01T10:13:22;7.20;46.20
1021;DHT22;499;42.648;23.270;2023-03-01T10:15:54;7.30;46.70
1021;DHT22;499;42.648;23.270;2023-03-01T10:18:25;7.40;44.90
1021;DHT22;499;42.648;23.270;2023-03-01T10:20:57;7.30;43.90
1021;DHT22;499;42.648;23.270;2023-03-01T10:23:26;7.00;45.50
1021;DHT22;499;42.648;23.270;2023-03-01T10:26:07;6.90;47.10
1021;DHT22;499;42.648;23.270;2023-03-01T10:28:44;7.00;47.60
1021;DHT22;499;42.648;23.270;2023-03-01T10:31:14;7.00;47.10
1021;DHT22;499;42.648;23.270;2023-03-01T10:33:41;7.00;46.60
1021;DHT22;499;42.648;23.270;2023-03-01T10:36:10;7.00;48.20
1021;DHT22;499;42.648;23.270;2023-03-01T10:38:48;7.00;48.20
1021;DHT22;499;42.648;23.270;2023-03-01T10:41:17;7.10;46.90
1021;DHT22;499;42.648;23.270;2023-03-01T10:43:46;7.20;48.40
1021;DHT22;499;42.648;23.270;2023-03-01T10:46:25;7.20;46.70
1021;DHT22;499;42.648;23.270;2023-03-01T10:49:14;7.00;46.80
1021;DHT22;499;42.648;23.270;2023-03-01T10:51:44;7.00;48.20
1021;DHT22;499;42.648;23.270;2023-03-01T10:54:18;7.00;48.20
1021;DHT22;499;42.648;23.270;2023-03-01T10:56:50;6.80;47.30
1021;DHT22;499;42.648;23.270;2023-03-01T10:59:27;6.80;49.60
1021;DHT22;499;42.648;23.270;2023-03-01T11:02:14;6.90;50.00
1021;DHT22;499;42.648;23.270;2023-03-01T11:04:57;6.90;48.80
1021;DHT22;499;42.648;23.270;2023-03-01T11:07:26;7.10;48.70
1021;DHT22;499;42.648;23.270;2023-03-01T11:09:53;7.10;48.30
1021;DHT22;499;42.648;23.270;2023-03-01T11:12:21;7.10;46.60
1021;DHT22;499;42.648;23.270;2023-03-01T11:14:50;7.00;48.50
1021;DHT22;499;42.648;23.270;2023-03-01T11:17:23;7.00;48.20
1021;DHT22;499;42.648;23.270;2023-03-01T11:20:05;7.20;48.40
1021;DHT22;499;42.648;23.270;2023-03-01T11:22:35;7.20;47.20
1021;DHT22;499;42.648;23.270;2023-03-01T11:25:03;7.30;47.50
1021;DHT22;499;42.648;23.270;2023-03-01T11:27:32;7.40;45.80
1021;DHT22;499;42.648;23.270;2023-03-01T11:30:03;7.30;45.60
1021;DHT22;499;42.648;23.270;2023-03-01T11:32:38;7.20;46.80
1021;DHT22;499;42.648;23.270;2023-03-01T11:35:13;7.20;46.20
1021;DHT22;499;42.648;23.270;2023-03-01T11:37:54;7.30;44.80
1021;DHT22;499;42.648;23.270;2023-03-01T11:40:25;7.20;45.10
1021;DHT22;499;42.648;23.270;2023-03-01T11:43:02;7.00;47.80
1021;DHT22;499;42.648;23.270;2023-03-01T11:45:42;7.10;46.70
1021;DHT22;499;42.648;23.270;2023-03-01T11:48:28;7.00;47.30
1021;DHT22;499;42.648;23.270;2023-03-01T11:51:03;6.90;47.60
1021;DHT22;499;42.648;23.270;2023-03-01T11:53:52;6.80;48.90
1021;DHT22;499;42.648;23.270;2023-03-01T11:56:27;6.80;49.60
1021;DHT22;499;42.648;23.270;2023-03-01T11:59:21;6.80;49.60
1021;DHT22;499;42.648;23.270;2023-03-01T12:02:12;6.80;49.30
1021;DHT22;499;42.648;23.270;2023-03-01T12:07:53;7.00;48.20
1021;DHT22;499;42.648;23.270;2023-03-01T12:10:27;6.90;49.10
1021;DHT22;499;42.648;23.270;2023-03-01T12:16:15;6.90;50.20
1021;DHT22;499;42.648;23.270;2023-03-01T12:19:05;6.90;49.80
1021;DHT22;499;42.648;23.270;2023-03-01T12:21:48;6.90;48.60
1021;DHT22;499;42.648;23.270;2023-03-01T12:27:47;7.20;47.50
1021;DHT22;499;42.648;23.270;2023-03-01T12:30:23;7.30;47.10
1021;DHT22;499;42.648;23.270;2023-03-01T12:33:02;7.40;46.40
1021;DHT22;499;42.648;23.270;2023-03-01T12:35:53;7.60;44.10
1021;DHT22;499;42.648;23.270;2023-03-01T12:38:32;7.60;44.10
1021;DHT22;499;42.648;23.270;2023-03-01T12:41:27;7.70;44.20
1021;DHT22;499;42.648;23.270;2023-03-01T12:44:10;8.00;43.30
1021;DHT22;499;42.648;23.270;2023-03-01T12:46:56;8.20;42.30
1021;DHT22;499;42.648;23.270;2023-03-01T12:49:31;8.10;41.60
1021;DHT22;499;42.648;23.270;2023-03-01T12:52:06;8.20;41.80
1021;DHT22;499;42.648;23.270;2023-03-01T12:54:37;8.40;40.10
1021;DHT22;499;42.648;23.270;2023-03-01T12:57:12;8.60;40.30
1021;DHT22;499;42.648;23.270;2023-03-01T13:00:00;8.60;38.60
1021;DHT22;499;42.648;23.270;2023-03-01T13:02:34;8.50;38.60
1021;DHT22;499;42.648;23.270;2023-03-01T13:05:20;8.40;39.10
1021;DHT22;499;42.648;23.270;2023-03-01T13:07:55;8.20;40.40
1021;DHT22;499;42.648;23.270;2023-03-01T13:10:29;8.20;40.00
1021;DHT22;499;42.648;23.270;2023-03-01T13:13:11;7.90;40.80
1021;DHT22;499;42.648;23.270;2023-03-01T13:15:41;7.80;42.40
1021;DHT22;499;42.648;23.270;2023-03-01T13:18:27;7.80;44.10
1021;DHT22;499;42.648;23.270;2023-03-01T13:20:56;8.00;43.10
1021;DHT22;499;42.648;23.270;2023-03-01T13:23:29;8.00;41.60
1021;DHT22;499;42.648;23.270;2023-03-01T13:26:14;8.10;41.90
1021;DHT22;499;42.648;23.270;2023-03-01T13:28:51;8.20;40.70
1021;DHT22;499;42.648;23.270;2023-03-01T13:34:43;8.10;40.30
1021;DHT22;499;42.648;23.270;2023-03-01T13:43:34;8.10;41.50
1021;DHT22;499;42.648;23.270;2023-03-01T13:46:08;8.00;42.50
1021;DHT22;499;42.648;23.270;2023-03-01T13:48:38;7.90;43.20
1021;DHT22;499;42.648;23.270;2023-03-01T13:51:09;7.90;44.30
1021;DHT22;499;42.648;23.270;2023-03-01T13:53:40;7.80;44.00
1021;DHT22;499;42.648;23.270;2023-03-01T13:56:12;7.70;44.20
1021;DHT22;499;42.648;23.270;2023-03-01T13:58:51;7.70;44.70
1021;DHT22;499;42.648;23.270;2023-03-01T14:01:26;7.50;45.70
1021;DHT22;499;42.648;23.270;2023-03-01T14:03:53;7.60;47.30
1021;DHT22;499;42.648;23.270;2023-03-01T14:06:24;7.70;47.30
1021;DHT22;499;42.648;23.270;2023-03-01T14:09:02;7.80;46.10
1021;DHT22;499;42.648;23.270;2023-03-01T14:11:54;7.90;43.10
1021;DHT22;499;42.648;23.270;2023-03-01T14:14:44;7.90;43.20
1021;DHT22;499;42.648;23.270;2023-03-01T14:17:32;7.90;44.40
1021;DHT22;499;42.648;23.270;2023-03-01T14:20:09;7.70;45.80
1021;DHT22;499;42.648;23.270;2023-03-01T14:22:41;7.80;46.30
1021;DHT22;499;42.648;23.270;2023-03-01T14:25:19;8.00;44.40
1021;DHT22;499;42.648;23.270;2023-03-01T14:27:59;7.80;45.40
1021;DHT22;499;42.648;23.270;2023-03-01T14:30:31;7.80;44.60
1021;DHT22;499;42.648;23.270;2023-03-01T14:33:01;7.60;45.50
1021;DHT22;499;42.648;23.270;2023-03-01T14:35:30;7.50;46.80
1021;DHT22;499;42.648;23.270;2023-03-01T14:37:59;7.50;47.40
1021;DHT22;499;42.648;23.270;2023-03-01T14:40:27;7.50;48.00
1021;DHT22;499;42.648;23.270;2023-03-01T14:42:57;7.50;48.00
1021;DHT22;499;42.648;23.270;2023-03-01T14:45:27;7.50;48.60
1021;DHT22;499;42.648;23.270;2023-03-01T14:47:55;7.60;48.60
1021;DHT22;499;42.648;23.270;2023-03-01T14:50:26;7.50;47.50
1021;DHT22;499;42.648;23.270;2023-03-01T14:52:56;7.40;48.50
1021;DHT22;499;42.648;23.270;2023-03-01T14:55:29;7.30;48.50
1021;DHT22;499;42.648;23.270;2023-03-01T14:57:57;7.30;48.40
1021;DHT22;499;42.648;23.270;2023-03-01T15:00:26;7.10;49.60
1021;DHT22;499;42.648;23.270;2023-03-01T15:02:55;7.20;50.80
1021;DHT22;499;42.648;23.270;2023-03-01T15:05:27;6.90;51.60
1021;DHT22;499;42.648;23.270;2023-03-01T15:07:58;6.90;54.10
1021;DHT22;499;42.648;23.270;2023-03-01T15:10:29;6.70;55.70
1021;DHT22;499;42.648;23.270;2023-03-01T15:13:10;6.70;56.80
1021;DHT22;499;42.648;23.270;2023-03-01T15:15:40;6.70;56.40
1021;DHT22;499;42.648;23.270;2023-03-01T15:18:17;6.80;56.30
1021;DHT22;499;42.648;23.270;2023-03-01T15:20:45;6.60;56.80
1021;DHT22;499;42.648;23.270;2023-03-01T15:23:20;6.60;59.30
1021;DHT22;499;42.648;23.270;2023-03-01T15:25:49;6.40;61.10
1021;DHT22;499;42.648;23.270;2023-03-01T15:28:23;6.30;63.20
1021;DHT22;499;42.648;23.270;2023-03-01T15:30:57;6.40;66.10
1021;DHT22;499;42.648;23.270;2023-03-01T15:33:36;6.40;65.00
1021;DHT22;499;42.648;23.270;2023-03-01T15:38:53;6.30;65.20
1021;DHT22;499;42.648;23.270;2023-03-01T15:41:27;6.30;65.90
1021;DHT22;499;42.648;23.270;2023-03-01T15:43:57;6.40;66.00
1021;DHT22;499;42.648;23.270;2023-03-01T15:46:29;6.30;64.30
1021;DHT22;499;42.648;23.270;2023-03-01T15:48:58;6.30;65.90
1021;DHT22;499;42.648;23.270;2023-03-01T15:51:33;6.30;65.90
1021;DHT22;499;42.648;23.270;2023-03-01T15:54:04;6.20;66.50
1021;DHT22;499;42.648;23.270;2023-03-01T15:56:33;6.00;69.00
1021;DHT22;499;42.648;23.270;2023-03-01T15:59:01;6.00;70.40
1021;DHT22;499;42.648;23.270;2023-03-01T16:01:29;5.90;72.30
1021;DHT22;499;42.648;23.270;2023-03-01T16:03:56;5.80;73.50
1021;DHT22;499;42.648;23.270;2023-03-01T16:06:24;5.80;75.00
1021;DHT22;499;42.648;23.270;2023-03-01T16:08:51;5.90;75.50
1021;DHT22;499;42.648;23.270;2023-03-01T16:11:19;5.90;75.10
1021;DHT22;499;42.648;23.270;2023-03-01T16:13:48;5.80;76.10
1021;DHT22;499;42.648;23.270;2023-03-01T16:16:16;5.70;77.00
1021;DHT22;499;42.648;23.270;2023-03-01T16:18:44;5.70;79.40
1021;DHT22;499;42.648;23.270;2023-03-01T16:21:16;5.60;79.40
1021;DHT22;499;42.648;23.270;2023-03-01T16:23:45;5.60;80.10
1021;DHT22;499;42.648;23.270;2023-03-01T16:26:12;5.60;80.60
1021;DHT22;499;42.648;23.270;2023-03-01T16:28:40;5.50;81.30
1021;DHT22;499;42.648;23.270;2023-03-01T16:31:08;5.50;82.00
1021;DHT22;499;42.648;23.270;2023-03-01T16:33:36;5.50;83.90
1021;DHT22;499;42.648;23.270;2023-03-01T16:36:07;5.60;83.50
1021;DHT22;499;42.648;23.270;2023-03-01T16:38:34;5.50;81.70
1021;DHT22;499;42.648;23.270;2023-03-01T16:41:02;5.50;83.90
1021;DHT22;499;42.648;23.270;2023-03-01T16:43:29;5.50;83.90
1021;DHT22;499;42.648;23.270;2023-03-01T16:45:56;5.40;84.10
1021;DHT22;499;42.648;23.270;2023-03-01T16:48:25;5.40;86.80
1021;DHT22;499;42.648;23.270;2023-03-01T16:50:59;5.40;87.60
1021;DHT22;499;42.648;23.270;2023-03-01T16:53:27;5.30;88.20
1021;DHT22;499;42.648;23.270;2023-03-01T16:55:55;5.30;88.10
1021;DHT22;499;42.648;23.270;2023-03-01T16:58:22;5.40;88.40
1021;DHT22;499;42.648;23.270;2023-03-01T17:00:51;5.30;88.20
1021;DHT22;499;42.648;23.270;2023-03-01T17:03:19;5.30;86.30